VLVT/VTE METAR and TAF weather

Enter ICAO airport designator
Station Type Date Time Source
VLVT METAR 2020/07/08 01:30 UTC NOAA

VLVT 080130Z 30002KT 7000 FEW016 BKN100 29/26 Q1009 NOSIG


Station Type Date Time Source
VLVT Decoded METAR 2020/07/08 01:30 UTC NOAA

Vientiane, Laos (VLVT) 17-57N 102-34E 171M
Jul 07, 2020 - 09:30 PM EDT / 2020.07.08 0130 UTC
Wind: from the WNW (300 degrees) at 2 MPH (2 KT):0
Visibility: 4 mile(s):0
Sky conditions: mostly cloudy
Temperature: 84 F (29 C)
Dew Point: 78 F (26 C)
Relative Humidity: 83%
Pressure (altimeter): 29.80 in. Hg (1009 hPa)
ob: VLVT 080130Z 30002KT 7000 FEW016 BKN100 29/26 Q1009 NOSIG
cycle: 1

Station Type Date Time Source
VLVT TAF 2020/07/07 18:39 UTC NOAA

TAF TAF VLVT 071700Z 0718/0818 14004KT 4000 RA SCT013 BKN040 SCT083

Example: see airport list